createdAt,value
2023-04-20T00:01:27.873Z,3.03
2023-04-20T00:04:01.129Z,3.00
2023-04-20T00:06:34.462Z,2.99
2023-04-20T00:09:09.242Z,2.94
2023-04-20T00:11:42.396Z,2.94
2023-04-20T00:14:16.025Z,2.94
2023-04-20T00:16:49.978Z,2.90
2023-04-20T00:19:23.207Z,2.85
2023-04-20T00:21:56.294Z,2.88
2023-04-20T00:24:30.893Z,2.86
2023-04-20T00:27:04.064Z,2.89
2023-04-20T00:29:37.124Z,2.84
2023-04-20T00:32:10.363Z,2.81
2023-04-20T00:34:43.456Z,2.76
2023-04-20T00:37:16.495Z,2.77
2023-04-20T00:39:50.862Z,2.76
2023-04-20T00:42:24.013Z,2.64
2023-04-20T00:44:57.034Z,2.60
2023-04-20T00:47:30.092Z,2.58
2023-04-20T00:50:03.441Z,2.50
2023-04-20T00:52:36.726Z,2.47
2023-04-20T00:55:11.878Z,2.45
2023-04-20T00:57:45.876Z,2.39
2023-04-20T01:00:20.172Z,2.41
2023-04-20T01:02:53.309Z,2.38
2023-04-20T01:05:26.986Z,2.38
2023-04-20T01:08:00.037Z,2.39
2023-04-20T01:10:34.655Z,2.37
2023-04-20T01:13:07.708Z,2.17
2023-04-20T01:15:40.761Z,2.19
2023-04-20T01:18:13.860Z,2.20
2023-04-20T01:20:47.936Z,2.13
2023-04-20T01:23:22.420Z,2.16
2023-04-20T01:25:55.433Z,2.22
2023-04-20T01:28:28.450Z,2.16
2023-04-20T01:31:01.900Z,2.10
2023-04-20T01:33:35.205Z,2.17
2023-04-20T01:36:09.863Z,2.16
2023-04-20T01:38:44.322Z,2.06
2023-04-20T01:41:17.533Z,2.08
2023-04-20T01:43:50.557Z,1.98
2023-04-20T01:46:23.711Z,1.93
2023-04-20T01:48:56.730Z,1.89
2023-04-20T01:51:29.730Z,1.84
2023-04-20T01:54:04.880Z,1.79
2023-04-20T01:56:37.898Z,1.77
2023-04-20T01:59:10.953Z,1.93
2023-04-20T02:01:43.998Z,2.06
2023-04-20T02:04:17.134Z,2.19
2023-04-20T02:06:50.347Z,1.88
2023-04-20T02:09:24.747Z,1.72
2023-04-20T02:11:58.172Z,1.56
2023-04-20T02:14:31.194Z,1.44
2023-04-20T02:17:04.586Z,1.35
2023-04-20T02:19:37.919Z,1.27
2023-04-20T02:22:10.948Z,1.41
2023-04-20T02:24:45.335Z,1.49
2023-04-20T02:27:18.351Z,1.52
2023-04-20T02:29:51.364Z,1.50
2023-04-20T02:32:24.529Z,1.73
2023-04-20T02:34:57.631Z,1.48
2023-04-20T02:37:31.234Z,1.47
2023-04-20T02:40:08.871Z,1.54
2023-04-20T02:42:42.334Z,1.62
2023-04-20T02:45:15.434Z,1.68
2023-04-20T02:47:48.492Z,1.57
2023-04-20T02:50:21.864Z,1.51
2023-04-20T02:52:54.899Z,1.58
2023-04-20T02:55:29.259Z,1.63
2023-04-20T02:58:02.276Z,1.59
2023-04-20T03:00:35.537Z,1.65
2023-04-20T03:03:08.683Z,1.64
2023-04-20T03:05:41.876Z,1.48
2023-04-20T03:08:14.873Z,1.39
2023-04-20T03:10:49.344Z,1.29
2023-04-20T03:13:22.435Z,1.28
2023-04-20T03:15:55.503Z,1.18
2023-04-20T03:18:28.740Z,1.09
2023-04-20T03:21:01.861Z,1.21
2023-04-20T03:23:35.000Z,1.15
2023-04-20T03:26:09.381Z,1.09
2023-04-20T03:28:43.088Z,0.93
2023-04-20T03:31:16.084Z,1.07
2023-04-20T03:33:49.076Z,1.03
2023-04-20T03:36:22.150Z,0.92
2023-04-20T03:38:55.484Z,0.88
2023-04-20T03:41:29.888Z,0.93
2023-04-20T03:44:02.967Z,0.97
2023-04-20T03:46:36.423Z,0.88
2023-04-20T03:49:09.432Z,0.95
2023-04-20T03:51:42.442Z,0.82
2023-04-20T03:54:15.447Z,0.85
2023-04-20T03:56:50.509Z,0.89
2023-04-20T03:59:23.567Z,0.84
2023-04-20T04:01:56.651Z,0.84
2023-04-20T04:04:30.115Z,0.75
2023-04-20T04:07:03.344Z,0.78
2023-04-20T04:09:36.413Z,0.76
2023-04-20T04:12:10.963Z,0.72
2023-04-20T04:14:43.998Z,0.78
2023-04-20T04:17:17.143Z,0.86
2023-04-20T04:19:50.221Z,0.95
2023-04-20T04:22:23.282Z,0.96
2023-04-20T04:24:56.355Z,0.86
2023-04-20T04:27:34.870Z,0.95
2023-04-20T04:30:11.085Z,0.96
2023-04-20T04:32:44.768Z,0.97
2023-04-20T04:35:18.132Z,0.98
2023-04-20T04:37:52.726Z,0.99
2023-04-20T04:40:26.111Z,0.96
2023-04-20T04:43:00.946Z,0.92
2023-04-20T04:45:34.021Z,0.98
2023-04-20T04:48:09.033Z,0.95
2023-04-20T04:50:42.412Z,0.89
2023-04-20T04:53:15.494Z,1.03
2023-04-20T04:55:48.497Z,1.08
2023-04-20T04:58:22.970Z,1.12
2023-04-20T05:00:56.009Z,1.25
2023-04-20T05:03:29.146Z,1.40
2023-04-20T05:06:02.347Z,1.41
2023-04-20T05:08:35.826Z,1.33
2023-04-20T05:11:08.850Z,1.46
2023-04-20T05:13:43.912Z,1.42
2023-04-20T05:16:17.457Z,1.56
2023-04-20T05:18:50.652Z,1.76
2023-04-20T05:21:23.834Z,2.04
2023-04-20T05:23:56.920Z,2.31
2023-04-20T05:26:29.979Z,2.65
2023-04-20T05:29:04.396Z,3.10
2023-04-20T05:31:37.405Z,3.39
2023-04-20T05:34:10.897Z,3.66
2023-04-20T05:36:44.184Z,3.80
2023-04-20T05:39:17.548Z,3.81
2023-04-20T05:41:50.749Z,3.68
2023-04-20T05:44:25.196Z,3.52
2023-04-20T05:46:58.341Z,3.50
2023-04-20T05:49:31.496Z,3.43
2023-04-20T05:52:04.767Z,3.22
2023-04-20T05:54:37.818Z,3.18
2023-04-20T05:57:11.674Z,3.17
2023-04-20T05:59:46.702Z,3.19
2023-04-20T06:02:19.845Z,3.50
2023-04-20T06:04:53.748Z,3.91
2023-04-20T06:07:26.861Z,4.82
2023-04-20T06:10:00.829Z,5.29
2023-04-20T06:12:34.085Z,5.31
2023-04-20T06:15:10.956Z,5.18
2023-04-20T06:17:44.190Z,4.95
2023-04-20T06:20:17.415Z,4.79
2023-04-20T06:22:50.946Z,4.69
2023-04-20T06:25:24.189Z,4.59
2023-04-20T06:27:57.343Z,4.65
2023-04-20T06:30:32.965Z,4.48
2023-04-20T06:33:06.506Z,4.38
2023-04-20T06:35:41.338Z,4.46
2023-04-20T06:38:14.356Z,4.78
2023-04-20T06:40:47.579Z,4.68
2023-04-20T06:43:20.736Z,4.89
2023-04-20T06:45:55.157Z,4.82
2023-04-20T06:48:31.960Z,4.82
2023-04-20T06:51:06.191Z,4.82
2023-04-20T06:53:39.190Z,4.82
2023-04-20T06:56:12.432Z,4.99
2023-04-20T06:58:45.555Z,5.49
2023-04-20T07:01:20.258Z,5.69
2023-04-20T07:03:53.531Z,6.00
2023-04-20T07:06:27.532Z,5.91
2023-04-20T07:09:00.714Z,5.92
2023-04-20T07:11:33.805Z,5.77
2023-04-20T07:14:06.822Z,5.48
2023-04-20T07:16:41.299Z,5.43
2023-04-20T07:19:14.392Z,5.49
2023-04-20T07:21:47.666Z,5.83
2023-04-20T07:24:20.781Z,5.62
2023-04-20T07:26:55.600Z,5.54
2023-04-20T07:29:28.662Z,5.64
2023-04-20T07:32:03.137Z,5.86
2023-04-20T07:34:36.206Z,5.65
2023-04-20T07:37:09.204Z,5.77
2023-04-20T07:39:42.208Z,5.76
2023-04-20T07:42:15.211Z,5.80
2023-04-20T07:44:48.229Z,5.77
2023-04-20T07:47:22.984Z,5.92
2023-04-20T07:49:57.522Z,6.23
2023-04-20T07:52:30.660Z,6.26
2023-04-20T07:55:03.814Z,6.30
2023-04-20T07:57:37.064Z,6.54
2023-04-20T08:00:12.936Z,6.43
2023-04-20T08:02:47.607Z,6.80
2023-04-20T08:05:21.096Z,6.92
2023-04-20T08:07:54.259Z,6.93
2023-04-20T08:10:27.246Z,6.79
2023-04-20T08:13:00.263Z,6.69
2023-04-20T08:15:33.256Z,6.72
2023-04-20T08:18:07.673Z,6.85
2023-04-20T08:20:40.748Z,7.13
2023-04-20T08:23:14.271Z,7.14
2023-04-20T08:25:47.378Z,7.15
2023-04-20T08:28:32.972Z,7.10
2023-04-20T08:31:07.416Z,7.11
2023-04-20T08:33:41.931Z,7.21
2023-04-20T08:36:15.176Z,7.47
2023-04-20T08:38:55.822Z,7.36
2023-04-20T08:41:28.854Z,7.60
2023-04-20T08:44:01.831Z,7.37
2023-04-20T08:46:35.476Z,7.84
2023-04-20T08:49:13.749Z,7.48
2023-04-20T08:51:48.538Z,7.36
2023-04-20T08:54:22.613Z,7.37
2023-04-20T08:56:57.027Z,7.80
2023-04-20T08:59:30.902Z,7.40
2023-04-20T09:02:12.050Z,7.34
2023-04-20T09:04:48.998Z,7.64
2023-04-20T09:07:22.756Z,7.86
2023-04-20T09:09:56.646Z,7.83
2023-04-20T09:12:29.882Z,7.79
2023-04-20T09:15:04.412Z,7.45
2023-04-20T09:17:40.766Z,7.73
2023-04-20T09:20:15.918Z,7.84
2023-04-20T09:22:50.870Z,7.89
2023-04-20T09:25:28.754Z,7.90
2023-04-20T09:28:02.686Z,8.12
2023-04-20T09:30:40.175Z,8.02
2023-04-20T09:33:14.644Z,8.27
2023-04-20T09:35:49.229Z,8.18
2023-04-20T09:38:28.003Z,7.73
2023-04-20T09:41:01.864Z,7.53
2023-04-20T09:43:37.110Z,7.82
2023-04-20T09:46:10.595Z,7.71
2023-04-20T09:48:43.725Z,7.83
2023-04-20T09:51:18.676Z,8.03
2023-04-20T09:53:53.035Z,7.94
2023-04-20T09:56:27.793Z,7.74
2023-04-20T09:59:01.785Z,7.98
2023-04-20T10:01:38.166Z,8.09
2023-04-20T10:04:14.322Z,8.19
2023-04-20T10:06:57.926Z,8.22
2023-04-20T10:09:33.242Z,8.04
2023-04-20T10:12:12.300Z,7.93
2023-04-20T10:14:57.028Z,8.04
2023-04-20T10:17:34.300Z,7.58
2023-04-20T10:20:21.219Z,7.66
2023-04-20T10:23:07.894Z,7.83
2023-04-20T10:25:41.605Z,7.80
2023-04-20T10:28:14.623Z,7.65
2023-04-20T10:30:53.301Z,7.58
2023-04-20T10:33:26.453Z,7.48
2023-04-20T10:35:59.475Z,7.51
2023-04-20T10:38:36.630Z,7.45
2023-04-20T10:41:10.231Z,7.54
2023-04-20T10:43:43.370Z,7.92
2023-04-20T10:46:17.950Z,8.13
2023-04-20T10:48:56.028Z,7.97
2023-04-20T10:51:29.733Z,7.91
2023-04-20T10:54:07.551Z,7.95
2023-04-20T10:56:42.292Z,7.72
2023-04-20T10:59:18.103Z,7.89
2023-04-20T11:01:53.998Z,8.16
2023-04-20T11:04:35.583Z,8.12
2023-04-20T11:07:13.053Z,8.37
2023-04-20T11:09:55.773Z,8.33
2023-04-20T11:12:39.432Z,8.35
2023-04-20T11:15:13.692Z,8.47
2023-04-20T11:17:47.069Z,8.25
2023-04-20T11:20:20.219Z,8.17
2023-04-20T11:22:59.722Z,8.28
2023-04-20T11:25:34.141Z,8.16
2023-04-20T11:28:08.953Z,8.07
2023-04-20T11:30:42.383Z,8.11
2023-04-20T11:33:16.101Z,8.10
2023-04-20T11:35:49.462Z,8.30
2023-04-20T11:38:30.009Z,8.23
2023-04-20T11:41:07.647Z,8.02
2023-04-20T11:43:40.681Z,8.05
2023-04-20T11:46:18.500Z,7.81
2023-04-20T11:48:51.586Z,7.87
2023-04-20T11:51:24.660Z,7.87
2023-04-20T11:53:57.812Z,7.83
2023-04-20T11:56:32.132Z,7.66
2023-04-20T11:59:05.363Z,7.43
2023-04-20T12:01:39.116Z,7.51
2023-04-20T12:09:35.957Z,7.61
2023-04-20T12:12:10.326Z,7.67
2023-04-20T12:14:43.237Z,7.69
2023-04-20T12:17:16.215Z,7.84
2023-04-20T12:19:49.198Z,7.84
2023-04-20T12:22:23.144Z,7.51
2023-04-20T12:24:56.406Z,7.70
2023-04-20T12:27:30.770Z,7.71
2023-04-20T12:30:04.426Z,7.58
2023-04-20T12:32:37.391Z,7.65
2023-04-20T12:35:10.598Z,7.74
2023-04-20T12:37:43.512Z,7.75
2023-04-20T12:40:16.476Z,7.84
2023-04-20T12:42:50.808Z,7.74
2023-04-20T12:45:24.072Z,7.76
2023-04-20T12:47:58.491Z,7.81
2023-04-20T12:50:33.386Z,7.81
2023-04-20T12:53:06.546Z,7.76
2023-04-20T12:55:39.549Z,7.79
2023-04-20T12:58:16.121Z,7.80
2023-04-20T13:00:49.077Z,7.93
2023-04-20T13:03:22.234Z,8.11
2023-04-20T13:05:55.477Z,7.84
2023-04-20T13:08:28.498Z,7.64
2023-04-20T13:11:01.512Z,7.87
2023-04-20T13:13:35.853Z,8.16
2023-04-20T13:16:09.182Z,8.24
2023-04-20T13:18:42.295Z,8.28
2023-04-20T13:21:15.325Z,7.99
2023-04-20T13:23:48.440Z,7.89
2023-04-20T13:26:21.488Z,7.85
2023-04-20T13:28:57.494Z,7.73
2023-04-20T13:31:31.151Z,7.88
2023-04-20T13:34:04.313Z,7.89
2023-04-20T13:36:37.311Z,7.75
2023-04-20T13:39:10.906Z,7.89
2023-04-20T13:41:44.108Z,7.96
2023-04-20T13:44:18.736Z,8.02
2023-04-20T13:46:52.112Z,7.82
2023-04-20T13:49:25.113Z,7.83
2023-04-20T13:51:58.115Z,7.93
2023-04-20T13:54:31.106Z,8.11
2023-04-20T13:57:04.333Z,8.23
2023-04-20T13:59:38.699Z,8.01
2023-04-20T14:02:11.766Z,8.08
2023-04-20T14:04:44.818Z,8.04
2023-04-20T14:07:17.927Z,7.96
2023-04-20T14:09:52.698Z,7.95
2023-04-20T14:12:27.035Z,8.21
2023-04-20T14:15:02.282Z,7.95
2023-04-20T14:17:35.403Z,7.97
2023-04-20T14:20:10.489Z,8.46
2023-04-20T14:22:43.777Z,8.44
2023-04-20T14:25:16.752Z,8.61
2023-04-20T14:27:49.748Z,8.59
2023-04-20T14:30:24.362Z,8.39
2023-04-20T14:32:59.243Z,8.45
2023-04-20T14:35:32.331Z,8.54
2023-04-20T14:38:05.387Z,8.55
2023-04-20T14:40:38.375Z,8.52
2023-04-20T14:43:11.398Z,8.50
2023-04-20T14:45:46.339Z,8.66
2023-04-20T14:48:19.313Z,8.69
2023-04-20T14:50:52.337Z,8.72
2023-04-20T14:53:25.383Z,8.67
2023-04-20T14:55:58.483Z,8.84
2023-04-20T14:58:31.504Z,8.84
2023-04-20T15:01:06.235Z,8.88
2023-04-20T15:03:39.438Z,8.95
2023-04-20T15:06:12.863Z,8.66
2023-04-20T15:08:46.558Z,8.95
2023-04-20T15:11:19.562Z,8.71
2023-04-20T15:13:52.934Z,8.78
2023-04-20T15:16:27.233Z,8.71
2023-04-20T15:19:00.235Z,8.80
2023-04-20T15:21:33.239Z,8.75
2023-04-20T15:24:07.228Z,8.56
2023-04-20T15:26:40.197Z,8.52
2023-04-20T15:29:13.187Z,8.24
2023-04-20T15:31:47.537Z,8.20
2023-04-20T15:34:20.919Z,8.07
2023-04-20T15:36:54.297Z,7.98
2023-04-20T15:39:27.290Z,7.86
2023-04-20T15:42:00.333Z,7.67
2023-04-20T15:44:33.355Z,7.49
2023-04-20T15:47:07.765Z,7.36
2023-04-20T15:49:41.439Z,7.27
2023-04-20T15:52:14.450Z,7.16
2023-04-20T15:54:48.577Z,7.08
2023-04-20T15:57:21.684Z,7.05
2023-04-20T15:59:54.740Z,7.04
2023-04-20T16:02:29.254Z,7.12
2023-04-20T16:05:02.663Z,7.16
2023-04-20T16:07:36.284Z,7.12
2023-04-20T16:10:10.956Z,7.12
2023-04-20T16:12:43.956Z,7.12
2023-04-20T16:15:17.403Z,7.23
2023-04-20T16:17:51.797Z,7.28
2023-04-20T16:20:24.823Z,7.26
2023-04-20T16:22:57.850Z,7.31
2023-04-20T16:25:32.414Z,7.35
2023-04-20T16:28:05.544Z,7.39
2023-04-20T16:30:38.592Z,7.41
2023-04-20T16:33:12.985Z,7.45
2023-04-20T16:35:46.277Z,7.49
2023-04-20T16:38:20.119Z,7.53
2023-04-20T16:40:53.071Z,7.54
2023-04-20T16:43:26.239Z,7.56
2023-04-20T16:46:00.006Z,7.44
2023-04-20T16:48:34.398Z,7.45
2023-04-20T16:51:08.419Z,7.45
2023-04-20T16:53:41.381Z,7.50
2023-04-20T16:56:14.396Z,7.52
2023-04-20T16:58:47.426Z,7.49
2023-04-20T17:01:20.547Z,7.47
2023-04-20T17:03:55.147Z,7.45
2023-04-20T17:06:28.405Z,7.48
2023-04-20T17:09:06.748Z,7.48
2023-04-20T17:11:39.959Z,7.48
2023-04-20T17:14:13.034Z,7.48
2023-04-20T17:16:46.060Z,7.49
2023-04-20T17:19:20.532Z,7.50
2023-04-20T17:21:53.675Z,7.51
2023-04-20T17:24:26.683Z,7.53
2023-04-20T17:26:59.851Z,7.52
2023-04-20T17:29:36.060Z,7.47
2023-04-20T17:32:09.146Z,7.39
2023-04-20T17:34:48.035Z,7.36
2023-04-20T17:37:22.299Z,7.34
2023-04-20T17:39:55.886Z,7.25
2023-04-20T17:42:29.001Z,7.09
2023-04-20T17:45:02.008Z,7.00
2023-04-20T17:47:35.019Z,7.07
2023-04-20T17:50:11.739Z,6.92
2023-04-20T17:52:44.764Z,6.97
2023-04-20T17:55:17.914Z,6.93
2023-04-20T17:57:51.040Z,6.94
2023-04-20T18:00:24.012Z,6.99
2023-04-20T18:02:57.233Z,7.05
2023-04-20T18:05:31.617Z,7.07
2023-04-20T18:08:04.862Z,7.06
2023-04-20T18:10:38.238Z,6.99
2023-04-20T18:13:11.348Z,6.95
2023-04-20T18:15:44.540Z,6.92
2023-04-20T18:18:21.273Z,6.94
2023-04-20T18:20:55.639Z,6.74
2023-04-20T18:23:29.961Z,6.77
2023-04-20T18:26:03.190Z,6.91
2023-04-20T18:28:36.220Z,6.95
2023-04-20T18:31:09.275Z,6.91
2023-04-20T18:33:42.306Z,7.09
2023-04-20T18:36:17.438Z,7.07
2023-04-20T18:38:51.363Z,6.99
2023-04-20T18:41:25.649Z,7.04
2023-04-20T18:43:58.856Z,7.08
2023-04-20T18:46:32.333Z,7.14
2023-04-20T18:49:06.159Z,7.15
2023-04-20T18:51:40.567Z,7.15
2023-04-20T18:54:13.638Z,7.08
2023-04-20T18:56:47.735Z,6.97
2023-04-20T18:59:20.996Z,7.09
2023-04-20T19:01:54.228Z,7.02
2023-04-20T19:04:27.608Z,6.74
2023-04-20T19:07:02.138Z,6.76
2023-04-20T19:09:35.279Z,6.86
2023-04-20T19:12:08.374Z,6.88
2023-04-20T19:14:41.398Z,6.84
2023-04-20T19:17:14.519Z,7.05
2023-04-20T19:19:48.069Z,6.96
2023-04-20T19:22:22.499Z,6.85
2023-04-20T19:24:55.485Z,7.12
2023-04-20T19:27:28.532Z,7.04
2023-04-20T19:30:01.550Z,7.22
2023-04-20T19:32:34.717Z,7.08
2023-04-20T19:35:08.092Z,7.07
2023-04-20T19:37:42.487Z,6.96
2023-04-20T19:40:16.187Z,7.08
2023-04-20T19:42:50.627Z,7.00
2023-04-20T19:45:24.531Z,7.13
2023-04-20T19:47:57.598Z,7.00
2023-04-20T19:50:30.933Z,7.11
2023-04-20T19:53:05.396Z,6.99
2023-04-20T19:55:38.484Z,7.06
2023-04-20T19:58:11.534Z,7.00
2023-04-20T20:00:44.770Z,7.05
2023-04-20T20:03:18.172Z,7.04
2023-04-20T20:05:51.252Z,7.06
2023-04-20T20:08:25.580Z,7.11
2023-04-20T20:10:58.553Z,7.10
2023-04-20T20:13:31.496Z,7.08
2023-04-20T20:16:04.773Z,7.11
2023-04-20T20:18:38.200Z,7.16
2023-04-20T20:21:11.339Z,7.16
2023-04-20T20:23:46.078Z,7.06
2023-04-20T20:26:19.073Z,7.05
2023-04-20T20:28:52.204Z,7.02
2023-04-20T20:31:25.259Z,7.06
2023-04-20T20:33:58.304Z,7.12
2023-04-20T20:36:31.840Z,7.17
2023-04-20T20:39:06.639Z,7.20
2023-04-20T20:41:42.422Z,7.21
2023-04-20T20:44:15.524Z,7.25
2023-04-20T20:46:48.557Z,7.29
2023-04-20T20:49:21.643Z,7.36
2023-04-20T20:51:54.743Z,7.41
2023-04-20T20:54:29.054Z,7.39
2023-04-20T20:57:02.945Z,7.37
2023-04-20T20:59:36.164Z,7.31
2023-04-20T21:02:09.173Z,7.19
2023-04-20T21:04:42.248Z,7.16
2023-04-20T21:07:15.287Z,7.21
2023-04-20T21:09:49.657Z,7.23
2023-04-20T21:12:22.743Z,7.26
2023-04-20T21:14:55.698Z,7.25
2023-04-20T21:17:28.658Z,7.25
2023-04-20T21:20:02.627Z,7.24
2023-04-20T21:22:35.800Z,7.21
2023-04-20T21:25:10.768Z,7.23
2023-04-20T21:27:43.754Z,7.27
2023-04-20T21:30:16.785Z,7.28
2023-04-20T21:32:49.763Z,7.27
2023-04-20T21:35:23.145Z,7.23
2023-04-20T21:37:56.226Z,7.21
2023-04-20T21:40:30.603Z,7.21
2023-04-20T21:43:03.563Z,7.19
2023-04-20T21:45:37.374Z,7.20
2023-04-20T21:48:10.439Z,7.20
2023-04-20T21:50:43.474Z,7.21
2023-04-20T21:53:16.519Z,7.17
2023-04-20T21:55:50.869Z,7.14
2023-04-20T21:58:23.847Z,7.05
2023-04-20T22:00:56.914Z,7.03
2023-04-20T22:03:31.336Z,7.02
2023-04-20T22:06:04.777Z,6.95
2023-04-20T22:08:39.799Z,6.95
2023-04-20T22:11:14.478Z,6.93
2023-04-20T22:13:47.443Z,6.86
2023-04-20T22:16:21.794Z,6.80
2023-04-20T22:18:54.974Z,6.77
2023-04-20T22:21:28.251Z,6.75
2023-04-20T22:24:01.283Z,6.80
2023-04-20T22:26:35.832Z,6.79
2023-04-20T22:29:08.882Z,6.74
2023-04-20T22:31:41.970Z,6.72
2023-04-20T22:34:15.077Z,6.72
2023-04-20T22:36:48.110Z,6.74
2023-04-20T22:39:21.301Z,6.73
2023-04-20T22:41:55.842Z,6.70
2023-04-20T22:44:28.924Z,6.69
2023-04-20T22:47:03.199Z,6.70
2023-04-20T22:49:37.481Z,6.73
2023-04-20T22:52:10.877Z,6.71
2023-04-20T22:54:47.875Z,6.66
2023-04-20T22:57:22.565Z,6.66
2023-04-20T22:59:55.561Z,6.66
2023-04-20T23:02:28.569Z,6.66
2023-04-20T23:05:01.641Z,6.60
2023-04-20T23:07:34.673Z,6.58
2023-04-20T23:10:10.808Z,6.59
2023-04-20T23:12:46.918Z,6.61
2023-04-20T23:15:20.044Z,6.60
2023-04-20T23:17:53.079Z,6.58
2023-04-20T23:20:26.608Z,6.51
2023-04-20T23:22:59.628Z,6.51
2023-04-20T23:25:32.629Z,6.48
2023-04-20T23:28:07.067Z,6.42
2023-04-20T23:30:40.112Z,6.37
2023-04-20T23:33:13.097Z,6.35
2023-04-20T23:35:46.157Z,6.32
2023-04-20T23:38:19.170Z,6.31
2023-04-20T23:40:52.144Z,6.31
2023-04-20T23:43:26.758Z,6.29
2023-04-20T23:45:59.992Z,6.27
2023-04-20T23:48:33.158Z,6.28
2023-04-20T23:51:06.578Z,6.23
2023-04-20T23:53:40.004Z,6.19
2023-04-20T23:56:13.937Z,6.08
2023-04-20T23:58:48.256Z,6.09
